sensor_id;sensor_type;location;lat;lon;timestamp;P1;durP1;ratioP1;P2;durP2;ratioP2
69979;SDS011;57318;56.232;43.944;2022-07-10T00:00:12;13.83;;;10.63;;
69979;SDS011;57318;56.232;43.944;2022-07-10T00:02:39;15.45;;;11.25;;
69979;SDS011;57318;56.232;43.944;2022-07-10T00:05:07;13.48;;;10.52;;
69979;SDS011;57318;56.232;43.944;2022-07-10T00:07:34;13.20;;;11.23;;
69979;SDS011;57318;56.232;43.944;2022-07-10T00:10:00;13.97;;;10.90;;
69979;SDS011;57318;56.232;43.944;2022-07-10T00:12:26;19.02;;;12.25;;
69979;SDS011;57318;56.232;43.944;2022-07-10T00:14:52;16.13;;;11.43;;
69979;SDS011;57318;56.232;43.944;2022-07-10T00:17:17;13.13;;;11.23;;
69979;SDS011;57318;56.232;43.944;2022-07-10T00:19:43;14.87;;;11.67;;
69979;SDS011;57318;56.232;43.944;2022-07-10T00:22:09;16.77;;;12.13;;
69979;SDS011;57318;56.232;43.944;2022-07-10T00:24:34;16.20;;;12.63;;
69979;SDS011;57318;56.232;43.944;2022-07-10T00:27:00;15.60;;;12.63;;
69979;SDS011;57318;56.232;43.944;2022-07-10T00:29:26;16.70;;;12.03;;
69979;SDS011;57318;56.232;43.944;2022-07-10T00:31:51;14.13;;;12.23;;
69979;SDS011;57318;56.232;43.944;2022-07-10T00:34:17;20.03;;;13.50;;
69979;SDS011;57318;56.232;43.944;2022-07-10T00:36:43;18.37;;;13.20;;
69979;SDS011;57318;56.232;43.944;2022-07-10T00:39:09;16.77;;;12.70;;
69979;SDS011;57318;56.232;43.944;2022-07-10T00:41:35;15.80;;;12.45;;
69979;SDS011;57318;56.232;43.944;2022-07-10T00:44:01;16.85;;;13.07;;
69979;SDS011;57318;56.232;43.944;2022-07-10T00:46:29;18.55;;;13.75;;
69979;SDS011;57318;56.232;43.944;2022-07-10T00:48:56;17.88;;;13.52;;
69979;SDS011;57318;56.232;43.944;2022-07-10T00:51:26;20.10;;;13.77;;
69979;SDS011;57318;56.232;43.944;2022-07-10T00:53:53;18.08;;;13.52;;
69979;SDS011;57318;56.232;43.944;2022-07-10T00:56:22;21.60;;;14.18;;
69979;SDS011;57318;56.232;43.944;2022-07-10T00:58:48;18.02;;;14.05;;
69979;SDS011;57318;56.232;43.944;2022-07-10T01:01:14;18.40;;;14.07;;
69979;SDS011;57318;56.232;43.944;2022-07-10T01:06:07;19.95;;;13.88;;
69979;SDS011;57318;56.232;43.944;2022-07-10T01:08:33;20.60;;;13.90;;
69979;SDS011;57318;56.232;43.944;2022-07-10T01:10:59;17.80;;;13.40;;
69979;SDS011;57318;56.232;43.944;2022-07-10T01:13:25;17.65;;;13.30;;
69979;SDS011;57318;56.232;43.944;2022-07-10T01:15:51;18.63;;;13.63;;
69979;SDS011;57318;56.232;43.944;2022-07-10T01:18:17;19.65;;;14.63;;
69979;SDS011;57318;56.232;43.944;2022-07-10T01:20:43;18.08;;;14.15;;
69979;SDS011;57318;56.232;43.944;2022-07-10T01:23:09;20.23;;;13.63;;
69979;SDS011;57318;56.232;43.944;2022-07-10T01:25:35;17.23;;;13.38;;
69979;SDS011;57318;56.232;43.944;2022-07-10T01:28:01;18.40;;;14.10;;
69979;SDS011;57318;56.232;43.944;2022-07-10T01:30:26;17.07;;;13.97;;
69979;SDS011;57318;56.232;43.944;2022-07-10T01:32:53;18.63;;;13.93;;
69979;SDS011;57318;56.232;43.944;2022-07-10T01:35:19;16.40;;;12.90;;
69979;SDS011;57318;56.232;43.944;2022-07-10T01:37:44;19.70;;;12.93;;
69979;SDS011;57318;56.232;43.944;2022-07-10T01:40:10;20.70;;;14.07;;
69979;SDS011;57318;56.232;43.944;2022-07-10T01:42:37;18.10;;;14.05;;
69979;SDS011;57318;56.232;43.944;2022-07-10T01:45:04;18.13;;;13.98;;
69979;SDS011;57318;56.232;43.944;2022-07-10T01:47:32;17.88;;;13.77;;
69979;SDS011;57318;56.232;43.944;2022-07-10T01:49:57;17.13;;;13.80;;
69979;SDS011;57318;56.232;43.944;2022-07-10T01:52:23;19.63;;;13.67;;
69979;SDS011;57318;56.232;43.944;2022-07-10T01:54:48;20.80;;;14.70;;
69979;SDS011;57318;56.232;43.944;2022-07-10T01:57:14;17.03;;;13.77;;
69979;SDS011;57318;56.232;43.944;2022-07-10T01:59:40;19.55;;;14.23;;
69979;SDS011;57318;56.232;43.944;2022-07-10T02:02:06;19.00;;;13.47;;
69979;SDS011;57318;56.232;43.944;2022-07-10T02:04:32;19.63;;;13.82;;
69979;SDS011;57318;56.232;43.944;2022-07-10T02:07:10;17.42;;;14.10;;
69979;SDS011;57318;56.232;43.944;2022-07-10T02:09:38;17.35;;;13.98;;
69979;SDS011;57318;56.232;43.944;2022-07-10T02:12:04;19.80;;;14.43;;
69979;SDS011;57318;56.232;43.944;2022-07-10T02:14:31;21.70;;;14.57;;
69979;SDS011;57318;56.232;43.944;2022-07-10T02:16:57;18.60;;;14.35;;
69979;SDS011;57318;56.232;43.944;2022-07-10T02:19:22;18.37;;;14.40;;
69979;SDS011;57318;56.232;43.944;2022-07-10T02:21:48;20.63;;;14.10;;
69979;SDS011;57318;56.232;43.944;2022-07-10T02:24:14;20.65;;;15.38;;
69979;SDS011;57318;56.232;43.944;2022-07-10T02:26:40;22.13;;;14.60;;
69979;SDS011;57318;56.232;43.944;2022-07-10T02:29:06;20.53;;;15.87;;
69979;SDS011;57318;56.232;43.944;2022-07-10T02:31:31;19.03;;;14.23;;
69979;SDS011;57318;56.232;43.944;2022-07-10T02:34:05;24.17;;;15.75;;
69979;SDS011;57318;56.232;43.944;2022-07-10T02:36:32;19.88;;;13.77;;
69979;SDS011;57318;56.232;43.944;2022-07-10T02:38:58;20.67;;;15.02;;
69979;SDS011;57318;56.232;43.944;2022-07-10T02:41:23;19.77;;;14.50;;
69979;SDS011;57318;56.232;43.944;2022-07-10T02:43:49;16.57;;;12.90;;
69979;SDS011;57318;56.232;43.944;2022-07-10T02:46:15;18.80;;;13.93;;
69979;SDS011;57318;56.232;43.944;2022-07-10T02:48:40;18.83;;;12.70;;
69979;SDS011;57318;56.232;43.944;2022-07-10T02:51:06;19.27;;;12.87;;
69979;SDS011;57318;56.232;43.944;2022-07-10T02:53:32;16.63;;;13.77;;
69979;SDS011;57318;56.232;43.944;2022-07-10T02:55:57;16.87;;;12.93;;
69979;SDS011;57318;56.232;43.944;2022-07-10T02:58:23;16.90;;;12.83;;
69979;SDS011;57318;56.232;43.944;2022-07-10T03:00:48;20.03;;;14.23;;
69979;SDS011;57318;56.232;43.944;2022-07-10T03:03:14;17.00;;;13.27;;
69979;SDS011;57318;56.232;43.944;2022-07-10T03:05:43;16.98;;;14.02;;
69979;SDS011;57318;56.232;43.944;2022-07-10T03:08:11;17.67;;;12.65;;
69979;SDS011;57318;56.232;43.944;2022-07-10T03:10:37;16.05;;;12.82;;
69979;SDS011;57318;56.232;43.944;2022-07-10T03:13:02;15.10;;;12.90;;
69979;SDS011;57318;56.232;43.944;2022-07-10T03:15:28;16.97;;;13.23;;
69979;SDS011;57318;56.232;43.944;2022-07-10T03:17:54;15.27;;;12.97;;
69979;SDS011;57318;56.232;43.944;2022-07-10T03:20:19;17.80;;;12.93;;
69979;SDS011;57318;56.232;43.944;2022-07-10T03:22:45;18.50;;;14.67;;
69979;SDS011;57318;56.232;43.944;2022-07-10T03:25:11;18.97;;;14.50;;
69979;SDS011;57318;56.232;43.944;2022-07-10T03:27:36;17.77;;;14.50;;
69979;SDS011;57318;56.232;43.944;2022-07-10T03:30:03;17.17;;;14.43;;
69979;SDS011;57318;56.232;43.944;2022-07-10T03:34:55;19.67;;;14.55;;
69979;SDS011;57318;56.232;43.944;2022-07-10T03:37:20;17.50;;;14.73;;
69979;SDS011;57318;56.232;43.944;2022-07-10T03:39:46;17.53;;;14.77;;
69979;SDS011;57318;56.232;43.944;2022-07-10T03:42:12;17.00;;;13.67;;
69979;SDS011;57318;56.232;43.944;2022-07-10T03:44:37;20.13;;;13.17;;
69979;SDS011;57318;56.232;43.944;2022-07-10T03:47:03;16.57;;;13.27;;
69979;SDS011;57318;56.232;43.944;2022-07-10T03:49:29;18.30;;;13.77;;
69979;SDS011;57318;56.232;43.944;2022-07-10T03:51:58;15.87;;;13.50;;
69979;SDS011;57318;56.232;43.944;2022-07-10T03:54:25;16.73;;;13.45;;
69979;SDS011;57318;56.232;43.944;2022-07-10T03:56:50;20.60;;;13.60;;
69979;SDS011;57318;56.232;43.944;2022-07-10T03:59:35;16.40;;;12.77;;
69979;SDS011;57318;56.232;43.944;2022-07-10T04:02:00;20.73;;;12.77;;
69979;SDS011;57318;56.232;43.944;2022-07-10T04:04:26;16.00;;;13.33;;
69979;SDS011;57318;56.232;43.944;2022-07-10T04:09:18;16.63;;;13.15;;
69979;SDS011;57318;56.232;43.944;2022-07-10T04:11:43;14.60;;;12.50;;
69979;SDS011;57318;56.232;43.944;2022-07-10T04:14:09;14.40;;;12.90;;
69979;SDS011;57318;56.232;43.944;2022-07-10T04:16:35;15.70;;;13.23;;
69979;SDS011;57318;56.232;43.944;2022-07-10T04:19:00;14.57;;;12.53;;
69979;SDS011;57318;56.232;43.944;2022-07-10T04:21:26;17.27;;;12.53;;
69979;SDS011;57318;56.232;43.944;2022-07-10T04:23:52;15.50;;;12.20;;
69979;SDS011;57318;56.232;43.944;2022-07-10T04:26:17;17.03;;;13.30;;
69979;SDS011;57318;56.232;43.944;2022-07-10T04:28:43;14.37;;;12.07;;
69979;SDS011;57318;56.232;43.944;2022-07-10T04:31:08;16.33;;;12.40;;
69979;SDS011;57318;56.232;43.944;2022-07-10T04:33:34;16.90;;;12.80;;
69979;SDS011;57318;56.232;43.944;2022-07-10T04:36:00;13.57;;;12.13;;
69979;SDS011;57318;56.232;43.944;2022-07-10T04:38:25;16.00;;;11.83;;
69979;SDS011;57318;56.232;43.944;2022-07-10T04:40:51;14.57;;;11.90;;
69979;SDS011;57318;56.232;43.944;2022-07-10T04:43:17;13.93;;;12.43;;
69979;SDS011;57318;56.232;43.944;2022-07-10T04:45:42;15.00;;;13.17;;
69979;SDS011;57318;56.232;43.944;2022-07-10T04:48:08;13.57;;;12.13;;
69979;SDS011;57318;56.232;43.944;2022-07-10T04:50:33;14.77;;;12.37;;
69979;SDS011;57318;56.232;43.944;2022-07-10T04:52:59;15.47;;;12.80;;
69979;SDS011;57318;56.232;43.944;2022-07-10T04:55:25;14.45;;;12.40;;
69979;SDS011;57318;56.232;43.944;2022-07-10T04:57:51;12.98;;;11.57;;
69979;SDS011;57318;56.232;43.944;2022-07-10T05:00:17;15.30;;;12.70;;
69979;SDS011;57318;56.232;43.944;2022-07-10T05:02:42;13.90;;;12.40;;
69979;SDS011;57318;56.232;43.944;2022-07-10T05:05:08;13.27;;;11.73;;
69979;SDS011;57318;56.232;43.944;2022-07-10T05:07:34;16.55;;;12.52;;
69979;SDS011;57318;56.232;43.944;2022-07-10T05:10:00;16.30;;;12.17;;
69979;SDS011;57318;56.232;43.944;2022-07-10T05:12:26;13.27;;;11.75;;
69979;SDS011;57318;56.232;43.944;2022-07-10T05:14:51;13.73;;;11.77;;
69979;SDS011;57318;56.232;43.944;2022-07-10T05:17:17;13.32;;;11.80;;
69979;SDS011;57318;56.232;43.944;2022-07-10T05:19:43;14.30;;;12.10;;
69979;SDS011;57318;56.232;43.944;2022-07-10T05:22:09;15.20;;;12.33;;
69979;SDS011;57318;56.232;43.944;2022-07-10T05:24:35;15.38;;;12.73;;
69979;SDS011;57318;56.232;43.944;2022-07-10T05:27:01;14.48;;;11.98;;
69979;SDS011;57318;56.232;43.944;2022-07-10T05:29:26;15.15;;;11.45;;
69979;SDS011;57318;56.232;43.944;2022-07-10T05:31:52;13.97;;;11.47;;
69979;SDS011;57318;56.232;43.944;2022-07-10T05:34:18;14.03;;;12.57;;
69979;SDS011;57318;56.232;43.944;2022-07-10T05:36:43;13.48;;;11.57;;
69979;SDS011;57318;56.232;43.944;2022-07-10T05:39:09;15.97;;;11.90;;
69979;SDS011;57318;56.232;43.944;2022-07-10T05:41:35;18.37;;;12.17;;
69979;SDS011;57318;56.232;43.944;2022-07-10T05:44:01;12.50;;;11.23;;
69979;SDS011;57318;56.232;43.944;2022-07-10T05:48:53;12.65;;;11.35;;
69979;SDS011;57318;56.232;43.944;2022-07-10T05:51:19;13.75;;;11.77;;
69979;SDS011;57318;56.232;43.944;2022-07-10T05:53:44;14.53;;;12.40;;
69979;SDS011;57318;56.232;43.944;2022-07-10T05:56:10;17.02;;;11.50;;
69979;SDS011;57318;56.232;43.944;2022-07-10T05:58:36;15.87;;;12.13;;
69979;SDS011;57318;56.232;43.944;2022-07-10T06:01:01;13.90;;;11.37;;
69979;SDS011;57318;56.232;43.944;2022-07-10T06:03:27;16.05;;;12.02;;
69979;SDS011;57318;56.232;43.944;2022-07-10T06:05:54;13.00;;;11.57;;
69979;SDS011;57318;56.232;43.944;2022-07-10T06:08:19;16.95;;;12.23;;
69979;SDS011;57318;56.232;43.944;2022-07-10T06:10:45;14.45;;;12.23;;
69979;SDS011;57318;56.232;43.944;2022-07-10T06:13:11;13.65;;;12.25;;
69979;SDS011;57318;56.232;43.944;2022-07-10T06:15:37;13.95;;;11.38;;
69979;SDS011;57318;56.232;43.944;2022-07-10T06:18:03;12.80;;;11.50;;
69979;SDS011;57318;56.232;43.944;2022-07-10T06:20:28;14.18;;;11.35;;
69979;SDS011;57318;56.232;43.944;2022-07-10T06:22:54;15.63;;;12.00;;
69979;SDS011;57318;56.232;43.944;2022-07-10T06:25:20;12.93;;;11.63;;
69979;SDS011;57318;56.232;43.944;2022-07-10T06:30:12;15.90;;;11.90;;
69979;SDS011;57318;56.232;43.944;2022-07-10T06:32:38;13.98;;;11.43;;
69979;SDS011;57318;56.232;43.944;2022-07-10T06:35:04;16.10;;;11.18;;
69979;SDS011;57318;56.232;43.944;2022-07-10T06:37:32;12.70;;;10.98;;
69979;SDS011;57318;56.232;43.944;2022-07-10T06:39:58;12.45;;;10.70;;
69979;SDS011;57318;56.232;43.944;2022-07-10T06:42:24;12.48;;;9.93;;
69979;SDS011;57318;56.232;43.944;2022-07-10T06:44:50;11.68;;;10.35;;
69979;SDS011;57318;56.232;43.944;2022-07-10T06:47:19;13.10;;;10.40;;
69979;SDS011;57318;56.232;43.944;2022-07-10T06:52:31;11.77;;;10.57;;
69979;SDS011;57318;56.232;43.944;2022-07-10T06:55:00;12.05;;;10.77;;
69979;SDS011;57318;56.232;43.944;2022-07-10T06:57:28;11.70;;;10.48;;
69979;SDS011;57318;56.232;43.944;2022-07-10T06:59:54;12.32;;;10.27;;
69979;SDS011;57318;56.232;43.944;2022-07-10T07:02:20;12.75;;;11.15;;
69979;SDS011;57318;56.232;43.944;2022-07-10T07:04:45;10.40;;;9.40;;
69979;SDS011;57318;56.232;43.944;2022-07-10T07:07:12;11.20;;;10.00;;
69979;SDS011;57318;56.232;43.944;2022-07-10T07:09:38;11.45;;;10.30;;
69979;SDS011;57318;56.232;43.944;2022-07-10T07:12:05;11.00;;;9.90;;
69979;SDS011;57318;56.232;43.944;2022-07-10T07:14:31;11.07;;;10.07;;
69979;SDS011;57318;56.232;43.944;2022-07-10T07:16:57;11.35;;;9.77;;
69979;SDS011;57318;56.232;43.944;2022-07-10T07:19:26;10.02;;;8.88;;
69979;SDS011;57318;56.232;43.944;2022-07-10T07:22:18;10.18;;;9.27;;
69979;SDS011;57318;56.232;43.944;2022-07-10T07:25:03;11.40;;;10.27;;
69979;SDS011;57318;56.232;43.944;2022-07-10T07:27:30;11.80;;;10.00;;
69979;SDS011;57318;56.232;43.944;2022-07-10T07:29:55;11.18;;;9.30;;
69979;SDS011;57318;56.232;43.944;2022-07-10T07:32:21;12.23;;;10.98;;
69979;SDS011;57318;56.232;43.944;2022-07-10T07:34:47;11.18;;;10.07;;
69979;SDS011;57318;56.232;43.944;2022-07-10T07:37:12;11.38;;;10.30;;
69979;SDS011;57318;56.232;43.944;2022-07-10T07:39:38;11.73;;;10.65;;
69979;SDS011;57318;56.232;43.944;2022-07-10T07:42:04;10.80;;;9.90;;
69979;SDS011;57318;56.232;43.944;2022-07-10T07:44:29;10.85;;;9.85;;
69979;SDS011;57318;56.232;43.944;2022-07-10T07:46:55;10.85;;;9.95;;
69979;SDS011;57318;56.232;43.944;2022-07-10T07:49:21;10.80;;;9.52;;
69979;SDS011;57318;56.232;43.944;2022-07-10T07:51:47;11.02;;;9.98;;
69979;SDS011;57318;56.232;43.944;2022-07-10T07:54:13;12.52;;;10.07;;
69979;SDS011;57318;56.232;43.944;2022-07-10T07:56:40;11.13;;;10.20;;
69979;SDS011;57318;56.232;43.944;2022-07-10T07:59:06;14.30;;;10.10;;
69979;SDS011;57318;56.232;43.944;2022-07-10T08:01:31;10.50;;;9.50;;
69979;SDS011;57318;56.232;43.944;2022-07-10T08:03:57;10.77;;;9.77;;
69979;SDS011;57318;56.232;43.944;2022-07-10T08:06:23;10.80;;;9.75;;
69979;SDS011;57318;56.232;43.944;2022-07-10T08:08:49;10.45;;;9.45;;
69979;SDS011;57318;56.232;43.944;2022-07-10T08:11:16;13.82;;;9.23;;
69979;SDS011;57318;56.232;43.944;2022-07-10T08:13:42;10.55;;;9.65;;
69979;SDS011;57318;56.232;43.944;2022-07-10T08:16:08;10.93;;;9.27;;
69979;SDS011;57318;56.232;43.944;2022-07-10T08:18:34;10.93;;;9.93;;
69979;SDS011;57318;56.232;43.944;2022-07-10T08:21:00;9.18;;;8.32;;
69979;SDS011;57318;56.232;43.944;2022-07-10T08:23:26;10.15;;;9.15;;
69979;SDS011;57318;56.232;43.944;2022-07-10T08:25:52;11.40;;;8.88;;
69979;SDS011;57318;56.232;43.944;2022-07-10T08:28:17;9.90;;;9.18;;
69979;SDS011;57318;56.232;43.944;2022-07-10T08:30:43;10.50;;;9.65;;
69979;SDS011;57318;56.232;43.944;2022-07-10T08:33:10;9.70;;;8.80;;
69979;SDS011;57318;56.232;43.944;2022-07-10T08:35:35;9.82;;;8.90;;
69979;SDS011;57318;56.232;43.944;2022-07-10T08:38:01;9.80;;;8.82;;
69979;SDS011;57318;56.232;43.944;2022-07-10T08:40:28;9.50;;;8.57;;
69979;SDS011;57318;56.232;43.944;2022-07-10T08:43:00;9.65;;;8.77;;
69979;SDS011;57318;56.232;43.944;2022-07-10T08:45:26;12.30;;;11.27;;
69979;SDS011;57318;56.232;43.944;2022-07-10T08:47:56;10.07;;;9.02;;
69979;SDS011;57318;56.232;43.944;2022-07-10T08:50:24;9.20;;;8.30;;
69979;SDS011;57318;56.232;43.944;2022-07-10T08:52:59;9.55;;;8.65;;
69979;SDS011;57318;56.232;43.944;2022-07-10T08:55:38;9.48;;;8.70;;
69979;SDS011;57318;56.232;43.944;2022-07-10T08:58:04;10.38;;;9.00;;
69979;SDS011;57318;56.232;43.944;2022-07-10T09:00:33;13.73;;;8.93;;
69979;SDS011;57318;56.232;43.944;2022-07-10T09:02:58;9.90;;;9.05;;
69979;SDS011;57318;56.232;43.944;2022-07-10T09:05:25;10.32;;;9.32;;
69979;SDS011;57318;56.232;43.944;2022-07-10T09:07:51;8.90;;;8.20;;
69979;SDS011;57318;56.232;43.944;2022-07-10T09:10:23;9.07;;;8.38;;
69979;SDS011;57318;56.232;43.944;2022-07-10T09:12:51;8.63;;;7.97;;
69979;SDS011;57318;56.232;43.944;2022-07-10T09:15:19;9.20;;;8.40;;
69979;SDS011;57318;56.232;43.944;2022-07-10T09:17:54;9.68;;;8.80;;
69979;SDS011;57318;56.232;43.944;2022-07-10T09:20:34;9.82;;;8.88;;
69979;SDS011;57318;56.232;43.944;2022-07-10T09:23:21;10.88;;;8.95;;
69979;SDS011;57318;56.232;43.944;2022-07-10T09:25:48;12.63;;;9.50;;
69979;SDS011;57318;56.232;43.944;2022-07-10T09:28:21;9.55;;;8.75;;
69979;SDS011;57318;56.232;43.944;2022-07-10T09:30:48;9.52;;;8.55;;
69979;SDS011;57318;56.232;43.944;2022-07-10T09:33:24;9.82;;;9.00;;
69979;SDS011;57318;56.232;43.944;2022-07-10T09:36:10;12.63;;;9.25;;
69979;SDS011;57318;56.232;43.944;2022-07-10T09:41:26;9.70;;;8.65;;
69979;SDS011;57318;56.232;43.944;2022-07-10T09:44:00;9.68;;;8.82;;
69979;SDS011;57318;56.232;43.944;2022-07-10T09:46:32;9.82;;;8.95;;
69979;SDS011;57318;56.232;43.944;2022-07-10T09:49:03;9.77;;;8.98;;
69979;SDS011;57318;56.232;43.944;2022-07-10T09:51:30;9.65;;;8.88;;
69979;SDS011;57318;56.232;43.944;2022-07-10T09:54:00;10.43;;;9.45;;
69979;SDS011;57318;56.232;43.944;2022-07-10T09:56:28;10.10;;;9.20;;
69979;SDS011;57318;56.232;43.944;2022-07-10T09:58:58;10.15;;;9.25;;
69979;SDS011;57318;56.232;43.944;2022-07-10T10:01:27;9.80;;;8.90;;
69979;SDS011;57318;56.232;43.944;2022-07-10T10:03:54;9.57;;;8.68;;
69979;SDS011;57318;56.232;43.944;2022-07-10T10:06:25;9.57;;;8.68;;
69979;SDS011;57318;56.232;43.944;2022-07-10T10:09:15;9.20;;;8.40;;
69979;SDS011;57318;56.232;43.944;2022-07-10T10:11:46;9.88;;;9.02;;
69979;SDS011;57318;56.232;43.944;2022-07-10T10:14:15;8.70;;;7.72;;
69979;SDS011;57318;56.232;43.944;2022-07-10T10:16:44;12.00;;;7.82;;
69979;SDS011;57318;56.232;43.944;2022-07-10T10:19:10;9.05;;;7.72;;
69979;SDS011;57318;56.232;43.944;2022-07-10T10:21:55;10.25;;;7.97;;
69979;SDS011;57318;56.232;43.944;2022-07-10T10:24:23;10.40;;;7.53;;
69979;SDS011;57318;56.232;43.944;2022-07-10T10:26:50;9.70;;;7.20;;
69979;SDS011;57318;56.232;43.944;2022-07-10T10:29:16;7.80;;;7.10;;
69979;SDS011;57318;56.232;43.944;2022-07-10T10:31:42;7.85;;;6.97;;
69979;SDS011;57318;56.232;43.944;2022-07-10T10:34:09;7.63;;;6.97;;
69979;SDS011;57318;56.232;43.944;2022-07-10T10:39:17;8.48;;;7.72;;
69979;SDS011;57318;56.232;43.944;2022-07-10T10:41:53;8.85;;;6.43;;
69979;SDS011;57318;56.232;43.944;2022-07-10T10:44:26;9.00;;;6.70;;
69979;SDS011;57318;56.232;43.944;2022-07-10T10:46:55;8.38;;;6.63;;
69979;SDS011;57318;56.232;43.944;2022-07-10T10:49:26;7.10;;;6.40;;
69979;SDS011;57318;56.232;43.944;2022-07-10T10:52:13;7.30;;;6.60;;
69979;SDS011;57318;56.232;43.944;2022-07-10T10:57:21;7.85;;;6.30;;
69979;SDS011;57318;56.232;43.944;2022-07-10T10:59:48;8.02;;;6.10;;
69979;SDS011;57318;56.232;43.944;2022-07-10T11:02:28;10.25;;;6.57;;
69979;SDS011;57318;56.232;43.944;2022-07-10T11:07:55;7.28;;;6.57;;
69979;SDS011;57318;56.232;43.944;2022-07-10T11:13:04;6.63;;;6.13;;
69979;SDS011;57318;56.232;43.944;2022-07-10T11:15:36;10.45;;;6.78;;
69979;SDS011;57318;56.232;43.944;2022-07-10T11:18:13;7.63;;;6.80;;
69979;SDS011;57318;56.232;43.944;2022-07-10T11:20:48;8.60;;;6.68;;
69979;SDS011;57318;56.232;43.944;2022-07-10T11:26:16;8.85;;;5.63;;
69979;SDS011;57318;56.232;43.944;2022-07-10T11:28:51;7.10;;;5.70;;
69979;SDS011;57318;56.232;43.944;2022-07-10T11:31:19;5.50;;;5.00;;
69979;SDS011;57318;56.232;43.944;2022-07-10T11:33:46;6.35;;;5.75;;
69979;SDS011;57318;56.232;43.944;2022-07-10T11:36:19;7.05;;;6.40;;
69979;SDS011;57318;56.232;43.944;2022-07-10T11:39:03;9.23;;;6.80;;
69979;SDS011;57318;56.232;43.944;2022-07-10T11:41:30;8.23;;;6.57;;
69979;SDS011;57318;56.232;43.944;2022-07-10T11:43:57;6.47;;;5.88;;
69979;SDS011;57318;56.232;43.944;2022-07-10T11:46:26;7.22;;;6.47;;
69979;SDS011;57318;56.232;43.944;2022-07-10T11:48:57;7.38;;;6.65;;
69979;SDS011;57318;56.232;43.944;2022-07-10T11:56:23;7.63;;;6.00;;
69979;SDS011;57318;56.232;43.944;2022-07-10T11:58:56;6.13;;;5.47;;
69979;SDS011;57318;56.232;43.944;2022-07-10T12:01:23;7.32;;;6.70;;
69979;SDS011;57318;56.232;43.944;2022-07-10T12:03:53;10.55;;;5.55;;
69979;SDS011;57318;56.232;43.944;2022-07-10T12:06:23;7.57;;;5.38;;
69979;SDS011;57318;56.232;43.944;2022-07-10T12:08:49;6.82;;;5.15;;
69979;SDS011;57318;56.232;43.944;2022-07-10T12:11:15;9.07;;;5.68;;
69979;SDS011;57318;56.232;43.944;2022-07-10T12:13:46;7.25;;;5.63;;
69979;SDS011;57318;56.232;43.944;2022-07-10T12:16:14;7.82;;;5.88;;
69979;SDS011;57318;56.232;43.944;2022-07-10T12:18:40;7.00;;;6.30;;
69979;SDS011;57318;56.232;43.944;2022-07-10T12:21:08;7.15;;;5.80;;
69979;SDS011;57318;56.232;43.944;2022-07-10T12:23:35;6.15;;;5.50;;
69979;SDS011;57318;56.232;43.944;2022-07-10T12:26:04;7.75;;;6.05;;
69979;SDS011;57318;56.232;43.944;2022-07-10T12:28:29;6.55;;;5.88;;
69979;SDS011;57318;56.232;43.944;2022-07-10T12:30:55;5.82;;;5.32;;
69979;SDS011;57318;56.232;43.944;2022-07-10T12:33:22;5.80;;;5.30;;
69979;SDS011;57318;56.232;43.944;2022-07-10T12:40:48;7.95;;;5.93;;
69979;SDS011;57318;56.232;43.944;2022-07-10T12:43:24;7.45;;;6.70;;
69979;SDS011;57318;56.232;43.944;2022-07-10T12:51:32;8.60;;;5.57;;
69979;SDS011;57318;56.232;43.944;2022-07-10T12:54:31;5.97;;;5.47;;
69979;SDS011;57318;56.232;43.944;2022-07-10T12:57:00;7.03;;;5.25;;
69979;SDS011;57318;56.232;43.944;2022-07-10T12:59:27;8.43;;;5.07;;
69979;SDS011;57318;56.232;43.944;2022-07-10T13:01:54;5.18;;;4.63;;
69979;SDS011;57318;56.232;43.944;2022-07-10T13:04:26;9.40;;;5.10;;
69979;SDS011;57318;56.232;43.944;2022-07-10T13:06:52;5.30;;;4.80;;
69979;SDS011;57318;56.232;43.944;2022-07-10T13:09:20;8.13;;;5.57;;
69979;SDS011;57318;56.232;43.944;2022-07-10T13:11:50;5.85;;;5.13;;
69979;SDS011;57318;56.232;43.944;2022-07-10T13:14:17;5.57;;;5.07;;
69979;SDS011;57318;56.232;43.944;2022-07-10T13:16:43;9.52;;;5.22;;
69979;SDS011;57318;56.232;43.944;2022-07-10T13:19:09;8.80;;;5.07;;
69979;SDS011;57318;56.232;43.944;2022-07-10T13:21:35;6.20;;;5.40;;
69979;SDS011;57318;56.232;43.944;2022-07-10T13:24:02;6.32;;;5.20;;
69979;SDS011;57318;56.232;43.944;2022-07-10T13:26:31;6.50;;;4.78;;
69979;SDS011;57318;56.232;43.944;2022-07-10T13:28:57;5.68;;;4.90;;
69979;SDS011;57318;56.232;43.944;2022-07-10T13:31:24;6.53;;;4.78;;
69979;SDS011;57318;56.232;43.944;2022-07-10T13:33:50;5.82;;;5.07;;
69979;SDS011;57318;56.232;43.944;2022-07-10T13:36:15;7.28;;;5.40;;
69979;SDS011;57318;56.232;43.944;2022-07-10T13:38:41;10.30;;;5.20;;
69979;SDS011;57318;56.232;43.944;2022-07-10T13:41:07;5.88;;;5.22;;
69979;SDS011;57318;56.232;43.944;2022-07-10T13:43:33;8.82;;;5.45;;
69979;SDS011;57318;56.232;43.944;2022-07-10T13:46:00;6.25;;;5.60;;
69979;SDS011;57318;56.232;43.944;2022-07-10T13:48:26;7.78;;;6.53;;
69979;SDS011;57318;56.232;43.944;2022-07-10T13:50:53;6.88;;;5.70;;
69979;SDS011;57318;56.232;43.944;2022-07-10T13:53:19;11.80;;;5.75;;
69979;SDS011;57318;56.232;43.944;2022-07-10T13:55:45;8.90;;;5.45;;
69979;SDS011;57318;56.232;43.944;2022-07-10T13:58:12;6.40;;;5.00;;
69979;SDS011;57318;56.232;43.944;2022-07-10T14:00:38;6.65;;;4.97;;
69979;SDS011;57318;56.232;43.944;2022-07-10T14:03:04;6.10;;;5.10;;
69979;SDS011;57318;56.232;43.944;2022-07-10T14:05:31;6.28;;;5.15;;
69979;SDS011;57318;56.232;43.944;2022-07-10T14:07:58;8.55;;;5.20;;
69979;SDS011;57318;56.232;43.944;2022-07-10T14:10:23;5.50;;;4.60;;
69979;SDS011;57318;56.232;43.944;2022-07-10T14:12:50;6.55;;;4.65;;
69979;SDS011;57318;56.232;43.944;2022-07-10T14:15:18;6.30;;;5.13;;
69979;SDS011;57318;56.232;43.944;2022-07-10T14:17:44;9.40;;;5.22;;
69979;SDS011;57318;56.232;43.944;2022-07-10T14:20:10;7.93;;;4.80;;
69979;SDS011;57318;56.232;43.944;2022-07-10T14:22:36;8.63;;;5.07;;
69979;SDS011;57318;56.232;43.944;2022-07-10T14:25:03;6.32;;;4.80;;
69979;SDS011;57318;56.232;43.944;2022-07-10T14:27:34;7.55;;;5.22;;
69979;SDS011;57318;56.232;43.944;2022-07-10T14:29:59;8.45;;;5.35;;
69979;SDS011;57318;56.232;43.944;2022-07-10T14:32:25;7.72;;;5.60;;
69979;SDS011;57318;56.232;43.944;2022-07-10T14:34:51;7.65;;;5.88;;
69979;SDS011;57318;56.232;43.944;2022-07-10T14:37:17;7.40;;;5.50;;
69979;SDS011;57318;56.232;43.944;2022-07-10T14:39:43;8.93;;;5.30;;
69979;SDS011;57318;56.232;43.944;2022-07-10T14:42:08;6.50;;;4.82;;
69979;SDS011;57318;56.232;43.944;2022-07-10T14:44:37;7.30;;;5.00;;
69979;SDS011;57318;56.232;43.944;2022-07-10T14:47:03;6.07;;;5.07;;
69979;SDS011;57318;56.232;43.944;2022-07-10T14:49:29;8.20;;;4.85;;
69979;SDS011;57318;56.232;43.944;2022-07-10T14:51:55;9.30;;;5.53;;
69979;SDS011;57318;56.232;43.944;2022-07-10T14:54:21;7.90;;;5.45;;
69979;SDS011;57318;56.232;43.944;2022-07-10T14:56:46;5.90;;;5.30;;
69979;SDS011;57318;56.232;43.944;2022-07-10T14:59:12;9.05;;;5.03;;
69979;SDS011;57318;56.232;43.944;2022-07-10T15:01:37;7.30;;;5.47;;
69979;SDS011;57318;56.232;43.944;2022-07-10T15:04:03;8.73;;;5.80;;
69979;SDS011;57318;56.232;43.944;2022-07-10T15:06:29;7.13;;;5.72;;